createdAt,value
2023-05-01T00:02:05.302Z,65.49
2023-05-01T00:04:50.367Z,65.55
2023-05-01T00:07:35.572Z,65.15
2023-05-01T00:10:20.974Z,64.12
2023-05-01T00:13:06.569Z,64.67
2023-05-01T00:15:52.049Z,65.81
2023-05-01T00:18:37.626Z,65.32
2023-05-01T00:21:22.768Z,65.79
2023-05-01T00:24:08.335Z,65.73
2023-05-01T00:26:53.556Z,65.71
2023-05-01T00:29:38.774Z,66.12
2023-05-01T00:32:23.925Z,66.30
2023-05-01T00:35:09.398Z,66.51
2023-05-01T00:37:54.846Z,66.48
2023-05-01T00:40:44.518Z,65.90
2023-05-01T00:43:29.945Z,65.48
2023-05-01T00:46:15.401Z,65.52
2023-05-01T00:49:00.680Z,64.23
2023-05-01T00:51:51.563Z,63.96
2023-05-01T00:54:37.903Z,63.43
2023-05-01T00:57:23.440Z,63.37
2023-05-01T01:00:09.332Z,64.07
2023-05-01T01:02:55.010Z,64.82
2023-05-01T01:05:54.487Z,64.28
2023-05-01T01:09:00.007Z,63.84
2023-05-01T01:12:13.623Z,64.37
2023-05-01T01:15:01.733Z,63.61
2023-05-01T01:17:57.212Z,62.81
2023-05-01T01:21:05.340Z,62.23
2023-05-01T01:24:15.114Z,62.10
2023-05-01T01:27:39.326Z,62.54
2023-05-01T01:30:46.906Z,62.26
2023-05-01T01:33:51.071Z,62.95
2023-05-01T01:37:19.172Z,62.86
2023-05-01T01:40:16.930Z,64.50
2023-05-01T01:43:16.981Z,64.11
2023-05-01T01:46:05.256Z,64.05
2023-05-01T01:48:52.691Z,64.17
2023-05-01T01:51:41.192Z,64.33
2023-05-01T01:54:33.052Z,65.42
2023-05-01T01:57:20.918Z,64.87
2023-05-01T02:00:10.869Z,64.76
2023-05-01T02:03:00.974Z,64.96
2023-05-01T02:05:47.860Z,64.07
2023-05-01T02:08:36.017Z,64.49
2023-05-01T02:11:22.779Z,63.87
2023-05-01T02:14:09.750Z,63.89
2023-05-01T02:16:55.504Z,63.78
2023-05-01T02:19:41.881Z,64.14
2023-05-01T02:22:28.448Z,62.66
2023-05-01T02:25:14.558Z,63.37
2023-05-01T02:28:03.555Z,63.61
2023-05-01T02:30:49.190Z,63.12
2023-05-01T02:33:34.677Z,64.29
2023-05-01T02:36:19.957Z,65.37
2023-05-01T02:39:06.410Z,65.09
2023-05-01T02:41:53.293Z,64.47
2023-05-01T02:44:42.838Z,64.68
2023-05-01T02:47:31.905Z,64.20
2023-05-01T02:50:19.558Z,64.69
2023-05-01T02:53:04.886Z,64.18
2023-05-01T02:56:06.165Z,64.69
2023-05-01T02:58:51.887Z,64.36
2023-05-01T03:01:37.151Z,64.13
2023-05-01T03:04:22.378Z,65.41
2023-05-01T03:07:07.741Z,65.19
2023-05-01T03:09:53.017Z,65.37
2023-05-01T03:12:38.012Z,66.39
2023-05-01T03:15:23.203Z,65.66
2023-05-01T03:18:08.550Z,65.06
2023-05-01T03:20:55.075Z,64.91
2023-05-01T03:23:40.125Z,64.56
2023-05-01T03:26:25.661Z,64.57
2023-05-01T03:29:10.814Z,65.06
2023-05-01T03:31:55.946Z,65.33
2023-05-01T03:34:41.117Z,65.75
2023-05-01T03:37:26.334Z,65.09
2023-05-01T03:40:11.983Z,64.38
2023-05-01T03:43:16.547Z,65.41
2023-05-01T03:46:02.531Z,66.04
2023-05-01T03:48:47.761Z,65.88
2023-05-01T03:51:32.753Z,66.56
2023-05-01T03:54:18.321Z,67.55
2023-05-01T03:57:15.191Z,67.07
2023-05-01T04:00:01.329Z,66.88
2023-05-01T04:02:50.188Z,66.82
2023-05-01T04:05:39.758Z,66.57
2023-05-01T04:08:25.189Z,67.09
2023-05-01T04:11:10.629Z,66.85
2023-05-01T04:13:55.783Z,67.28
2023-05-01T04:16:41.694Z,67.83
2023-05-01T04:19:27.248Z,67.28
2023-05-01T04:22:16.135Z,68.04
2023-05-01T04:25:01.713Z,67.68
2023-05-01T04:27:47.217Z,68.01
2023-05-01T04:30:33.297Z,68.20
2023-05-01T04:33:19.005Z,68.48
2023-05-01T04:36:04.627Z,68.03
2023-05-01T04:38:50.140Z,68.99
2023-05-01T04:41:35.765Z,68.96
2023-05-01T04:44:23.144Z,69.82
2023-05-01T04:47:08.742Z,69.15
2023-05-01T04:49:55.280Z,68.72
2023-05-01T04:52:40.646Z,69.34
2023-05-01T04:55:29.164Z,68.70
2023-05-01T04:58:21.956Z,66.72
2023-05-01T05:01:10.898Z,65.80
2023-05-01T05:03:56.843Z,65.89
2023-05-01T05:06:42.398Z,67.48
2023-05-01T05:09:33.597Z,68.27
2023-05-01T05:12:19.308Z,68.48
2023-05-01T05:15:04.921Z,69.49
2023-05-01T05:17:50.118Z,69.21
2023-05-01T05:20:38.482Z,69.39
2023-05-01T05:23:23.742Z,69.14
2023-05-01T05:26:09.286Z,68.11
2023-05-01T05:28:54.404Z,67.96
2023-05-01T05:31:39.990Z,68.52
2023-05-01T05:34:25.508Z,68.53
2023-05-01T05:37:11.209Z,68.81
2023-05-01T05:40:04.910Z,67.67
2023-05-01T05:42:57.126Z,67.88
2023-05-01T05:45:44.373Z,67.45
2023-05-01T05:48:29.461Z,66.78
2023-05-01T05:51:14.583Z,66.57
2023-05-01T05:54:00.071Z,66.40
2023-05-01T05:56:45.391Z,66.78
2023-05-01T05:59:31.732Z,65.67
2023-05-01T06:02:17.361Z,66.08
2023-05-01T06:05:03.529Z,66.99
2023-05-01T06:07:49.189Z,65.06
2023-05-01T06:10:35.100Z,64.78
2023-05-01T06:13:20.435Z,63.87
2023-05-01T06:16:07.981Z,63.51
2023-05-01T06:18:53.500Z,61.70
2023-05-01T06:21:38.916Z,62.57
2023-05-01T06:24:24.591Z,64.20
2023-05-01T06:27:11.490Z,62.75
2023-05-01T06:29:57.357Z,62.77
2023-05-01T06:32:42.952Z,63.27
2023-05-01T06:35:29.698Z,63.30
2023-05-01T06:38:14.882Z,64.21
2023-05-01T06:41:00.319Z,63.96
2023-05-01T06:43:45.557Z,62.74
2023-05-01T06:46:30.803Z,63.16
2023-05-01T06:49:15.966Z,61.67
2023-05-01T06:52:01.972Z,61.66
2023-05-01T06:54:47.510Z,61.92
2023-05-01T06:57:33.009Z,59.60
2023-05-01T07:00:18.724Z,60.75
2023-05-01T07:03:05.163Z,60.10
2023-05-01T07:05:50.167Z,60.20
2023-05-01T07:08:35.884Z,58.81
2023-05-01T07:11:21.478Z,58.68
2023-05-01T07:14:06.695Z,57.06
2023-05-01T07:16:51.953Z,57.23
2023-05-01T07:19:37.526Z,54.66
2023-05-01T07:22:22.902Z,54.17
2023-05-01T07:25:08.832Z,54.43
2023-05-01T07:27:54.374Z,55.10
2023-05-01T07:30:40.311Z,55.94
2023-05-01T07:33:25.332Z,55.50
2023-05-01T07:36:10.962Z,56.20
2023-05-01T07:38:56.467Z,54.78
2023-05-01T07:41:41.986Z,55.05
2023-05-01T07:44:27.410Z,50.80
2023-05-01T07:47:13.213Z,48.49
2023-05-01T07:49:58.819Z,52.35
2023-05-01T07:52:44.533Z,49.53
2023-05-01T07:55:29.760Z,52.49
2023-05-01T07:58:17.754Z,49.91
2023-05-01T08:01:04.050Z,51.98
2023-05-01T08:03:51.001Z,51.10
2023-05-01T08:06:36.824Z,50.47
2023-05-01T08:09:22.329Z,51.05
2023-05-01T08:12:07.752Z,54.45
2023-05-01T08:14:53.288Z,54.83
2023-05-01T08:17:38.457Z,52.66
2023-05-01T08:20:24.056Z,51.39
2023-05-01T08:23:09.191Z,51.52
2023-05-01T08:25:55.042Z,53.45
2023-05-01T08:28:40.552Z,51.56
2023-05-01T08:31:25.844Z,50.79
2023-05-01T08:34:11.425Z,53.15
2023-05-01T08:36:56.717Z,52.10
2023-05-01T08:39:41.927Z,52.24
2023-05-01T08:42:29.881Z,51.96
2023-05-01T08:45:19.238Z,54.38
2023-05-01T08:48:08.710Z,53.57
2023-05-01T08:50:56.682Z,51.67
2023-05-01T08:53:43.677Z,49.50
2023-05-01T08:56:31.372Z,51.57
2023-05-01T08:59:18.166Z,52.71
2023-05-01T09:02:05.267Z,51.90
2023-05-01T09:04:51.127Z,50.29
2023-05-01T09:07:37.585Z,50.18
2023-05-01T09:10:24.365Z,49.46
2023-05-01T09:13:09.967Z,52.40
2023-05-01T09:15:55.610Z,51.34
2023-05-01T09:18:41.596Z,47.71
2023-05-01T09:21:30.305Z,48.87
2023-05-01T09:24:15.561Z,48.81
2023-05-01T09:27:00.748Z,47.62
2023-05-01T09:29:47.684Z,48.28
2023-05-01T09:32:33.578Z,48.24
2023-05-01T09:35:18.762Z,50.63
2023-05-01T09:38:04.187Z,49.83
2023-05-01T09:40:50.056Z,47.96
2023-05-01T09:43:35.677Z,47.35
2023-05-01T09:46:22.234Z,50.19
2023-05-01T09:49:07.617Z,49.86
2023-05-01T09:51:53.074Z,47.68
2023-05-01T09:54:38.408Z,50.23
2023-05-01T09:57:43.319Z,50.05
2023-05-01T10:00:28.955Z,47.40
2023-05-01T10:03:14.413Z,47.99
2023-05-01T10:06:00.381Z,47.81
2023-05-01T10:08:50.196Z,47.96
2023-05-01T10:12:04.687Z,49.68
2023-05-01T10:14:53.861Z,50.00
2023-05-01T10:17:40.821Z,48.54
2023-05-01T10:20:26.262Z,46.89
2023-05-01T10:23:11.803Z,46.28
2023-05-01T10:26:00.857Z,45.63
2023-05-01T10:28:49.273Z,45.12
2023-05-01T10:31:34.526Z,45.23
2023-05-01T10:34:25.010Z,44.02
2023-05-01T10:37:22.742Z,44.10
2023-05-01T10:40:40.877Z,45.43
2023-05-01T10:43:31.106Z,42.81
2023-05-01T10:46:19.277Z,42.63
2023-05-01T10:49:07.440Z,43.21
2023-05-01T10:51:58.875Z,41.90
2023-05-01T10:54:44.072Z,38.13
2023-05-01T10:57:42.771Z,41.87
2023-05-01T11:00:28.377Z,40.75
2023-05-01T11:03:23.395Z,38.20
2023-05-01T11:06:09.208Z,37.51
2023-05-01T11:08:55.240Z,37.14
2023-05-01T11:11:40.452Z,37.29
2023-05-01T11:14:25.825Z,35.00
2023-05-01T11:17:11.399Z,37.63
2023-05-01T11:19:56.582Z,35.25
2023-05-01T11:22:45.277Z,34.84
2023-05-01T11:25:31.533Z,33.85
2023-05-01T11:28:19.641Z,34.97
2023-05-01T11:31:05.377Z,34.00
2023-05-01T11:33:51.136Z,35.07
2023-05-01T11:36:50.129Z,35.99
2023-05-01T11:39:35.361Z,33.74
2023-05-01T11:42:21.725Z,34.60
2023-05-01T11:45:08.562Z,32.26
2023-05-01T11:47:54.293Z,35.70
2023-05-01T11:50:39.403Z,33.94
2023-05-01T11:53:24.832Z,36.46
2023-05-01T11:56:26.384Z,36.63
2023-05-01T11:59:15.006Z,36.77
2023-05-01T12:02:00.384Z,35.18
2023-05-01T12:04:45.766Z,36.47
2023-05-01T12:07:31.078Z,34.55
2023-05-01T12:10:18.049Z,36.85
2023-05-01T12:13:04.635Z,36.15
2023-05-01T12:15:52.135Z,37.89
2023-05-01T12:18:37.480Z,35.45
2023-05-01T12:21:22.652Z,36.93
2023-05-01T12:24:17.998Z,36.05
2023-05-01T12:27:03.282Z,36.40
2023-05-01T12:29:49.204Z,36.57
2023-05-01T12:32:34.646Z,35.97
2023-05-01T12:35:20.403Z,37.31
2023-05-01T12:38:13.867Z,37.38
2023-05-01T12:40:59.954Z,35.21
2023-05-01T12:43:45.216Z,35.10
2023-05-01T12:46:30.856Z,35.16
2023-05-01T12:49:18.328Z,33.36
2023-05-01T12:52:05.735Z,33.97
2023-05-01T12:54:51.106Z,36.97
2023-05-01T12:57:36.233Z,36.81
2023-05-01T13:00:21.683Z,34.48
2023-05-01T13:03:06.955Z,34.91
2023-05-01T13:05:58.313Z,35.10
2023-05-01T13:08:44.175Z,36.58
2023-05-01T13:11:29.714Z,37.95
2023-05-01T13:14:15.019Z,37.05
2023-05-01T13:17:02.070Z,35.90
2023-05-01T13:19:53.559Z,36.78
2023-05-01T13:22:39.349Z,38.06
2023-05-01T13:25:24.582Z,39.30
2023-05-01T13:28:10.009Z,39.44
2023-05-01T13:30:55.423Z,38.74
2023-05-01T13:33:42.333Z,38.88
2023-05-01T13:36:31.678Z,40.94
2023-05-01T13:39:21.267Z,39.30
2023-05-01T13:42:06.735Z,37.09
2023-05-01T13:44:55.214Z,37.37
2023-05-01T13:47:41.903Z,39.11
2023-05-01T13:50:27.427Z,36.67
2023-05-01T13:53:13.808Z,37.94
2023-05-01T13:55:59.365Z,38.69
2023-05-01T13:58:44.728Z,38.66
2023-05-01T14:01:29.982Z,38.50
2023-05-01T14:04:17.432Z,36.84
2023-05-01T14:07:03.041Z,37.94
2023-05-01T14:09:56.771Z,36.50
2023-05-01T14:12:43.058Z,37.67
2023-05-01T14:15:28.172Z,37.85
2023-05-01T14:18:16.409Z,39.21
2023-05-01T14:21:02.052Z,38.88
2023-05-01T14:23:47.223Z,40.30
2023-05-01T14:26:32.395Z,41.39
2023-05-01T14:29:23.168Z,39.68
2023-05-01T14:32:08.843Z,40.13
2023-05-01T14:34:54.117Z,40.50
2023-05-01T14:37:39.144Z,40.41
2023-05-01T14:40:27.962Z,41.60
2023-05-01T14:43:16.001Z,41.72
2023-05-01T14:46:01.855Z,39.67
2023-05-01T14:48:47.323Z,40.63
2023-05-01T14:51:33.425Z,40.52
2023-05-01T14:54:19.116Z,42.65
2023-05-01T14:57:05.698Z,39.99
2023-05-01T14:59:50.902Z,41.16
2023-05-01T15:02:36.253Z,39.81
2023-05-01T15:05:21.876Z,40.76
2023-05-01T15:08:08.895Z,40.86
2023-05-01T15:10:54.251Z,40.72
2023-05-01T15:13:39.902Z,39.88
2023-05-01T15:16:27.821Z,35.33
2023-05-01T15:19:13.321Z,38.78
2023-05-01T15:21:58.706Z,41.23
2023-05-01T15:24:44.059Z,40.80
2023-05-01T15:27:29.209Z,39.33
2023-05-01T15:30:15.139Z,38.61
2023-05-01T15:33:01.561Z,38.64
2023-05-01T15:35:47.071Z,38.76
2023-05-01T15:38:32.373Z,39.21
2023-05-01T15:41:19.052Z,37.21
2023-05-01T15:44:04.906Z,39.60
2023-05-01T15:46:51.053Z,39.82
2023-05-01T15:49:36.214Z,39.81
2023-05-01T15:52:21.321Z,37.35
2023-05-01T15:55:07.214Z,36.51
2023-05-01T15:57:52.794Z,35.93
2023-05-01T16:00:37.977Z,39.40
2023-05-01T16:03:23.426Z,38.06
2023-05-01T16:06:09.000Z,38.44
2023-05-01T16:08:54.497Z,40.50
2023-05-01T16:11:40.053Z,40.70
2023-05-01T16:14:26.465Z,39.26
2023-05-01T16:17:11.893Z,39.99
2023-05-01T16:19:57.622Z,40.42
2023-05-01T16:22:43.588Z,41.00
2023-05-01T16:25:28.945Z,40.05
2023-05-01T16:28:16.224Z,40.04
2023-05-01T16:31:04.965Z,41.37
2023-05-01T16:33:56.234Z,42.73
2023-05-01T16:36:42.473Z,43.52
2023-05-01T16:39:28.081Z,43.84
2023-05-01T16:42:15.326Z,44.37
2023-05-01T16:45:01.992Z,43.43
2023-05-01T16:47:47.485Z,43.99
2023-05-01T16:50:32.915Z,44.33
2023-05-01T16:53:18.230Z,42.53
2023-05-01T16:56:04.396Z,46.55
2023-05-01T16:58:49.800Z,46.11
2023-05-01T17:01:35.320Z,44.99
2023-05-01T17:04:21.082Z,42.93
2023-05-01T17:07:07.491Z,43.77
2023-05-01T17:09:52.653Z,45.91
2023-05-01T17:12:37.760Z,45.84
2023-05-01T17:15:23.235Z,46.58
2023-05-01T17:18:08.865Z,46.40
2023-05-01T17:20:54.271Z,47.56
2023-05-01T17:23:39.720Z,47.74
2023-05-01T17:26:25.421Z,46.92
2023-05-01T17:29:10.866Z,46.23
2023-05-01T17:31:56.242Z,46.69
2023-05-01T17:34:41.604Z,46.03
2023-05-01T17:37:27.254Z,46.36
2023-05-01T17:40:12.831Z,44.88
2023-05-01T17:42:58.911Z,43.15
2023-05-01T17:45:44.107Z,43.38
2023-05-01T17:48:29.358Z,42.71
2023-05-01T17:51:14.869Z,43.80
2023-05-01T17:54:01.616Z,45.09
2023-05-01T17:56:47.125Z,45.55
2023-05-01T17:59:32.496Z,45.63
2023-05-01T18:02:17.771Z,46.21
2023-05-01T18:05:03.845Z,46.02
2023-05-01T18:07:51.978Z,47.21
2023-05-01T18:10:38.215Z,46.67
2023-05-01T18:13:23.729Z,47.59
2023-05-01T18:16:09.319Z,48.13
2023-05-01T18:18:54.755Z,48.04
2023-05-01T18:21:40.256Z,47.56
2023-05-01T18:24:25.437Z,47.91
2023-05-01T18:27:11.688Z,47.33
2023-05-01T18:29:57.043Z,48.09
2023-05-01T18:32:48.371Z,47.73
2023-05-01T18:35:35.069Z,47.89
2023-05-01T18:38:20.721Z,48.84
2023-05-01T18:41:06.040Z,49.02
2023-05-01T18:43:55.588Z,48.65
2023-05-01T18:46:42.899Z,48.40
2023-05-01T18:49:29.118Z,48.98
2023-05-01T18:52:14.462Z,49.11
2023-05-01T18:55:00.418Z,50.01
2023-05-01T18:57:45.839Z,50.45
2023-05-01T19:00:31.259Z,49.79
2023-05-01T19:03:16.641Z,50.43
2023-05-01T19:06:02.362Z,50.71
2023-05-01T19:08:47.972Z,50.68
2023-05-01T19:11:33.151Z,51.35
2023-05-01T19:14:18.430Z,52.07
2023-05-01T19:17:04.758Z,52.02
2023-05-01T19:19:50.020Z,52.31
2023-05-01T19:22:35.238Z,52.04
2023-05-01T19:25:20.661Z,51.58
2023-05-01T19:28:06.094Z,52.08
2023-05-01T19:30:51.267Z,52.54
2023-05-01T19:33:36.702Z,52.93
2023-05-01T19:36:22.040Z,53.45
2023-05-01T19:39:07.308Z,53.91
2023-05-01T19:41:52.766Z,54.25
2023-05-01T19:44:38.627Z,54.41
2023-05-01T19:47:24.251Z,55.68
2023-05-01T19:50:11.046Z,55.30
2023-05-01T19:52:56.170Z,55.48
2023-05-01T19:55:41.798Z,56.09
2023-05-01T19:58:27.135Z,58.00
2023-05-01T20:01:12.721Z,57.08
2023-05-01T20:03:58.207Z,56.88
2023-05-01T20:06:43.433Z,56.92
2023-05-01T20:09:28.970Z,56.78
2023-05-01T20:12:14.235Z,56.90
2023-05-01T20:15:00.417Z,57.17
2023-05-01T20:17:46.413Z,56.85
2023-05-01T20:20:31.998Z,56.52
2023-05-01T20:23:18.813Z,56.75
2023-05-01T20:26:04.289Z,57.53
2023-05-01T20:28:49.763Z,57.82
2023-05-01T20:31:35.307Z,58.95
2023-05-01T20:34:23.178Z,59.09
2023-05-01T20:37:08.545Z,59.19
2023-05-01T20:39:53.910Z,59.49
2023-05-01T20:42:39.383Z,59.05
2023-05-01T20:45:25.804Z,59.63
2023-05-01T20:48:10.992Z,59.80
2023-05-01T20:50:56.094Z,59.91
2023-05-01T20:53:41.334Z,59.75
2023-05-01T20:56:26.950Z,59.75
2023-05-01T20:59:12.384Z,60.27
2023-05-01T21:01:57.619Z,60.20
2023-05-01T21:04:43.164Z,60.07
2023-05-01T21:07:29.656Z,60.18
2023-05-01T21:10:14.791Z,60.16
2023-05-01T21:13:00.231Z,60.23
2023-05-01T21:15:45.678Z,60.17
2023-05-01T21:18:33.337Z,59.79
2023-05-01T21:21:18.848Z,59.78
2023-05-01T21:24:04.976Z,59.59
2023-05-01T21:26:50.529Z,59.96
2023-05-01T21:29:36.124Z,60.15
2023-05-01T21:32:32.906Z,60.46
2023-05-01T21:35:20.635Z,60.30
2023-05-01T21:38:06.213Z,60.62
2023-05-01T21:40:51.995Z,61.02
2023-05-01T21:43:37.705Z,61.62
2023-05-01T21:46:23.292Z,61.93
2023-05-01T21:49:11.372Z,61.82
2023-05-01T21:52:00.747Z,62.13
2023-05-01T21:54:46.141Z,61.68
2023-05-01T21:57:31.930Z,61.48
2023-05-01T22:00:17.560Z,61.66
2023-05-01T22:03:06.588Z,61.78
2023-05-01T22:05:51.812Z,62.51
2023-05-01T22:08:37.054Z,62.36
2023-05-01T22:11:22.207Z,62.34
2023-05-01T22:14:07.635Z,62.31
2023-05-01T22:16:53.049Z,61.66
2023-05-01T22:19:38.218Z,61.51
2023-05-01T22:22:23.512Z,62.70
2023-05-01T22:25:10.066Z,62.42
2023-05-01T22:27:55.108Z,62.94
2023-05-01T22:30:40.274Z,63.31
2023-05-01T22:33:25.823Z,63.68
2023-05-01T22:36:11.294Z,64.03
2023-05-01T22:38:56.599Z,64.22
2023-05-01T22:41:41.786Z,64.53
2023-05-01T22:44:27.309Z,65.35
2023-05-01T22:47:12.942Z,65.88
2023-05-01T22:49:58.392Z,65.25
2023-05-01T22:52:45.867Z,65.03
2023-05-01T22:55:32.778Z,64.70
2023-05-01T22:58:18.187Z,64.92
2023-05-01T23:01:03.466Z,65.08
2023-05-01T23:03:50.292Z,65.60
2023-05-01T23:06:35.961Z,66.93
2023-05-01T23:09:23.592Z,66.80
2023-05-01T23:12:16.556Z,66.96
2023-05-01T23:15:02.592Z,67.02
2023-05-01T23:17:49.540Z,67.34
2023-05-01T23:20:35.013Z,68.25
2023-05-01T23:23:20.487Z,68.12
2023-05-01T23:26:06.288Z,68.10
2023-05-01T23:28:52.626Z,67.65
2023-05-01T23:31:44.124Z,67.57
2023-05-01T23:34:29.496Z,66.91
2023-05-01T23:37:14.848Z,66.99
2023-05-01T23:40:00.226Z,66.83
2023-05-01T23:42:46.311Z,65.99
2023-05-01T23:45:31.610Z,65.79
2023-05-01T23:48:17.316Z,65.10
2023-05-01T23:51:03.279Z,65.03
2023-05-01T23:53:48.647Z,64.64
2023-05-01T23:56:33.811Z,64.52
2023-05-01T23:59:18.987Z,63.96
